Share

Ansonville, NC

Anson County (KAFP) Elev 299 ft | 35.02 °N, 80.08 °W | Change Station

Current weather conditions updated 17 minutes ago

Rain
Rain
51 °F
Feels Like 51 °F
N
8
Wind Variable Wind from North
Sunrise 6:43 AM
Sunset 7:56 PM
Moon Waning Gibbous

Today is forecast to be Much Cooler than yesterday. Cloudy, periods of rain.

Pressure 30.09 in
Visibility 3.0 miles
Clouds Overcast 700 ft
Dew Point 50 °F
Humidity 97%
Rainfall 1.63 in
Snow Depth Not available.
UV 0 out of 16
Pollen 4.50 out of 12
Air Quality Not available.
Flu Activity Local Activity
METAR KAFP 191155Z AUTO 36007KT 3SM RA OVC007 11/10 A3009 RMK AO2 P0009 60066 70113 T01050100 10105 20100

More Conditions Fewer Conditions

Pressure 30.09 in
Visibility 3.0 miles
Clouds Overcast 700 ft
Dew Point 50 °F
Humidity 97%
Rainfall 1.63 in
Snow Depth Not available.
UV 0 out of 16
Pollen 4.50 out of 12
Air Quality Not available.
Flu Activity Local Activity
METAR KAFP 191155Z AUTO 36007KT 3SM RA OVC007 11/10 A3009 RMK AO2 P0009 60066 70113 T01050100 10105 20100

More Conditions Fewer Conditions

10-Day Weather Forecast

Almanac

Astronomy

Apr. 19, 2014 Rise Set
Actual Time 6:43 AM EDT 7:56 PM EDT
Civil Twilight 6:17 AM EDT 8:22 PM EDT
Nautical Twilight 5:45 AM EDT 8:53 PM EDT
Astronomical Twilight 5:13 AM EDT 9:26 PM EDT
Moon No Moon Rise 10:05 AM EDT
Length of Visible Light 14h 05m
Length of Day
13h 12m
Tomorrow will be 2m 2s longer.
Waning Gibbous, 80% of the Moon is Illuminated
Today
Waning Gibbous
Apr 22
Last Quarter
Apr 29
New
May 6
First Quarter
May 14
Full

Today's Extremes

State Highs State Lows

Community

  • Bleeding Hearts
    Bleeding Hearts
  • Sunset Silhouettes
    Sunset Silhouettes
  • FL sunset Perico Isle
    FL sunset Perico Isle
  • Cloudy spring view
    Cloudy spring view
  • Old barn
    Old barn

WunderPhotos

Upload Photos

1,702,700 photos uploaded!

Nearby

Snow Depth

Station Depth Elevation
No new snow has been reported.

Coastal Water Temperatures

Place Temperature
No Stations Reporting

Earthquake Activity

City Distance Mag. Time & Date
No recent earthquake activity has been reported nearby.
Minimum magnitude displayed is 2.5.

Nearby Weather Stations

Station Location Temp. Windchill Dew Point Humidity Wind Precip. Elev Updated Type
MesoWest W57A Gilead , Mount Gilead, NC - - - - NNE  at  3 mph 0.00 in / hr 277 ft 7:40 AM EDT MADIS
1.5 ML W of New Salem, Monroe, NC 49.4 °F 49 °F 48 °F 97% North  at  2.0 mph 0.00 in / hr 551 ft 8:11 AM EDT Normal
Mt. Gilead, Mt. Gilead, NC 48.3 °F 47 °F 47 °F 96% SW  at  4.0 mph 0.00 in / hr 655 ft 8:01 AM EDT Normal
Deer Run, Hamlet, NC 51.7 °F - 51 °F 96% East  at  2.0 mph 0.02 in / hr 400 ft 8:05 AM EDT Normal
Cheraw, SC 52.4 °F - 52 °F 98% West  at  0.0 mph 0.09 in / hr 110 ft 8:10 AM EDT Normal

Show More Stations Show Fewer Stations

What do you think?

We're not finished. Please let us know what you like, what you don't like, and what you are still missing.